sensor_id;sensor_type;location;lat;lon;timestamp;pressure;altitude;pressure_sealevel;temperature;humidity
75026;BME280;63591;50.080;8.286;2023-02-03T00:01:33;100811.31;;;11.37;62.16
75026;BME280;63591;50.080;8.286;2023-02-03T00:03:59;100806.06;;;11.37;62.28
75026;BME280;63591;50.080;8.286;2023-02-03T00:06:24;100792.91;;;11.37;62.26
75026;BME280;63591;50.080;8.286;2023-02-03T00:08:52;100781.59;;;11.36;62.40
75026;BME280;63591;50.080;8.286;2023-02-03T00:11:19;100754.31;;;11.37;62.44
75026;BME280;63591;50.080;8.286;2023-02-03T00:13:45;100751.69;;;11.37;62.52
75026;BME280;63591;50.080;8.286;2023-02-03T00:16:10;100744.66;;;11.38;62.44
75026;BME280;63591;50.080;8.286;2023-02-03T00:18:35;100757.66;;;11.40;62.48
75026;BME280;63591;50.080;8.286;2023-02-03T00:21:01;100769.13;;;11.38;62.39
75026;BME280;63591;50.080;8.286;2023-02-03T00:23:26;100762.91;;;11.40;62.39
75026;BME280;63591;50.080;8.286;2023-02-03T00:25:56;100771.75;;;11.38;62.44
75026;BME280;63591;50.080;8.286;2023-02-03T00:28:21;100770.94;;;11.38;62.34
75026;BME280;63591;50.080;8.286;2023-02-03T00:30:46;100773.56;;;11.38;62.43
75026;BME280;63591;50.080;8.286;2023-02-03T00:33:12;100777.03;;;11.38;62.38
75026;BME280;63591;50.080;8.286;2023-02-03T00:35:38;100772.72;;;11.37;62.50
75026;BME280;63591;50.080;8.286;2023-02-03T00:38:04;100769.97;;;11.39;62.64
75026;BME280;63591;50.080;8.286;2023-02-03T00:40:29;100768.16;;;11.40;62.70
75026;BME280;63591;50.080;8.286;2023-02-03T00:42:54;100784.78;;;11.40;62.56
75026;BME280;63591;50.080;8.286;2023-02-03T00:45:20;100775.13;;;11.41;62.74
75026;BME280;63591;50.080;8.286;2023-02-03T00:47:45;100767.34;;;11.39;62.79
75026;BME280;63591;50.080;8.286;2023-02-03T00:50:11;100762.09;;;11.39;62.70
75026;BME280;63591;50.080;8.286;2023-02-03T00:52:36;100768.16;;;11.40;62.60
75026;BME280;63591;50.080;8.286;2023-02-03T00:55:02;100755.03;;;11.40;62.50
75026;BME280;63591;50.080;8.286;2023-02-03T00:57:28;100758.50;;;11.40;62.54
75026;BME280;63591;50.080;8.286;2023-02-03T00:59:53;100741.88;;;11.40;62.55
75026;BME280;63591;50.080;8.286;2023-02-03T01:02:19;100738.31;;;11.41;62.69
75026;BME280;63591;50.080;8.286;2023-02-03T01:04:44;100714.66;;;11.41;62.84
75026;BME280;63591;50.080;8.286;2023-02-03T01:07:09;100703.28;;;11.40;62.60
75026;BME280;63591;50.080;8.286;2023-02-03T01:09:35;100697.19;;;11.40;62.64
75026;BME280;63591;50.080;8.286;2023-02-03T01:12:02;100719.91;;;11.41;62.63
75026;BME280;63591;50.080;8.286;2023-02-03T01:14:28;100736.63;;;11.40;62.69
75026;BME280;63591;50.080;8.286;2023-02-03T01:16:53;100734.97;;;11.38;62.57
75026;BME280;63591;50.080;8.286;2023-02-03T01:19:18;100727.06;;;11.38;62.73
75026;BME280;63591;50.080;8.286;2023-02-03T01:21:44;100706.88;;;11.39;62.75
75026;BME280;63591;50.080;8.286;2023-02-03T01:24:09;100707.84;;;11.38;62.60
75026;BME280;63591;50.080;8.286;2023-02-03T01:26:35;100719.31;;;11.37;62.81
75026;BME280;63591;50.080;8.286;2023-02-03T01:29:00;100710.47;;;11.38;62.85
75026;BME280;63591;50.080;8.286;2023-02-03T01:31:28;100709.66;;;11.37;62.85
75026;BME280;63591;50.080;8.286;2023-02-03T01:33:54;100717.53;;;11.37;62.76
75026;BME280;63591;50.080;8.286;2023-02-03T01:36:22;100717.53;;;11.37;62.94
75026;BME280;63591;50.080;8.286;2023-02-03T01:38:48;100713.13;;;11.38;62.77
75026;BME280;63591;50.080;8.286;2023-02-03T01:41:16;100715.88;;;11.36;62.88
75026;BME280;63591;50.080;8.286;2023-02-03T01:43:45;100721.94;;;11.37;62.85
75026;BME280;63591;50.080;8.286;2023-02-03T01:46:29;100729.94;;;11.35;62.89
75026;BME280;63591;50.080;8.286;2023-02-03T01:49:05;100716.69;;;11.37;62.92
75026;BME280;63591;50.080;8.286;2023-02-03T01:51:31;100712.28;;;11.37;62.86
75026;BME280;63591;50.080;8.286;2023-02-03T01:53:57;100705.22;;;11.38;62.94
75026;BME280;63591;50.080;8.286;2023-02-03T01:56:25;100698.28;;;11.37;63.03
75026;BME280;63591;50.080;8.286;2023-02-03T01:58:53;100704.38;;;11.37;62.83
75026;BME280;63591;50.080;8.286;2023-02-03T02:01:18;100700.91;;;11.37;62.92
75026;BME280;63591;50.080;8.286;2023-02-03T02:03:48;100695.78;;;11.35;63.12
75026;BME280;63591;50.080;8.286;2023-02-03T02:06:15;100683.47;;;11.36;63.13
75026;BME280;63591;50.080;8.286;2023-02-03T02:08:43;100686.13;;;11.36;63.04
75026;BME280;63591;50.080;8.286;2023-02-03T02:11:10;100679.88;;;11.37;63.02
75026;BME280;63591;50.080;8.286;2023-02-03T02:13:36;100686.13;;;11.36;63.08
75026;BME280;63591;50.080;8.286;2023-02-03T02:22:17;100706.28;;;11.35;63.25
75026;BME280;63591;50.080;8.286;2023-02-03T02:27:18;100707.97;;;11.36;63.01
75026;BME280;63591;50.080;8.286;2023-02-03T02:38:08;100708.91;;;11.35;63.18
75026;BME280;63591;50.080;8.286;2023-02-03T02:43:24;100712.41;;;11.36;63.05
75026;BME280;63591;50.080;8.286;2023-02-03T02:46:00;100728.16;;;11.36;63.30
75026;BME280;63591;50.080;8.286;2023-02-03T02:48:39;100736.06;;;11.36;63.30
75026;BME280;63591;50.080;8.286;2023-02-03T02:51:10;100742.16;;;11.36;63.32
75026;BME280;63591;50.080;8.286;2023-02-03T02:53:39;100744.78;;;11.36;63.22
75026;BME280;63591;50.080;8.286;2023-02-03T02:56:08;100743.94;;;11.36;63.22
75026;BME280;63591;50.080;8.286;2023-02-03T02:58:37;100756.22;;;11.35;63.35
75026;BME280;63591;50.080;8.286;2023-02-03T03:01:06;100750.97;;;11.35;63.30
75026;BME280;63591;50.080;8.286;2023-02-03T03:03:32;100746.56;;;11.36;63.38
75026;BME280;63591;50.080;8.286;2023-02-03T03:06:04;100750.16;;;11.35;63.51
75026;BME280;63591;50.080;8.286;2023-02-03T03:08:56;100724.94;;;11.32;63.43
75026;BME280;63591;50.080;8.286;2023-02-03T03:11:25;100723.75;;;11.36;63.65
75026;BME280;63591;50.080;8.286;2023-02-03T03:13:52;100703.66;;;11.35;63.46
75026;BME280;63591;50.080;8.286;2023-02-03T03:16:23;100708.91;;;11.35;63.56
75026;BME280;63591;50.080;8.286;2023-02-03T03:18:59;100711.69;;;11.34;63.60
75026;BME280;63591;50.080;8.286;2023-02-03T03:21:29;100722.91;;;11.36;63.60
75026;BME280;63591;50.080;8.286;2023-02-03T03:23:58;100703.66;;;11.35;63.59
75026;BME280;63591;50.080;8.286;2023-02-03T03:26:30;100698.41;;;11.35;64.00
75026;BME280;63591;50.080;8.286;2023-02-03T03:29:21;100710.75;;;11.35;63.42
75026;BME280;63591;50.080;8.286;2023-02-03T03:31:49;100703.41;;;11.38;63.59
75026;BME280;63591;50.080;8.286;2023-02-03T03:34:15;100693.88;;;11.37;63.50
75026;BME280;63591;50.080;8.286;2023-02-03T03:36:55;100692.22;;;11.36;63.59
75026;BME280;63591;50.080;8.286;2023-02-03T03:39:44;100683.34;;;11.37;63.66
75026;BME280;63591;50.080;8.286;2023-02-03T03:45:15;100685.13;;;11.37;63.59
75026;BME280;63591;50.080;8.286;2023-02-03T03:48:24;100693.88;;;11.37;63.67
75026;BME280;63591;50.080;8.286;2023-02-03T03:50:43;100703.41;;;11.38;63.49
75026;BME280;63591;50.080;8.286;2023-02-03T03:53:10;100704.25;;;11.39;63.53
75026;BME280;63591;50.080;8.286;2023-02-03T03:55:39;100700.78;;;11.38;63.56
75026;BME280;63591;50.080;8.286;2023-02-03T03:58:15;100688.63;;;11.37;63.61
75026;BME280;63591;50.080;8.286;2023-02-03T04:00:44;100690.28;;;11.38;63.50
75026;BME280;63591;50.080;8.286;2023-02-03T04:03:20;100682.50;;;11.37;63.39
75026;BME280;63591;50.080;8.286;2023-02-03T04:05:47;100691.00;;;11.41;63.63
75026;BME280;63591;50.080;8.286;2023-02-03T04:08:13;100683.22;;;11.39;63.66
75026;BME280;63591;50.080;8.286;2023-02-03T04:10:40;100679.75;;;11.38;63.30
75026;BME280;63591;50.080;8.286;2023-02-03T04:13:07;100677.13;;;11.38;63.76
75026;BME280;63591;50.080;8.286;2023-02-03T04:15:33;100679.06;;;11.36;63.60
75026;BME280;63591;50.080;8.286;2023-02-03T04:17:58;100685.13;;;11.37;63.80
75026;BME280;63591;50.080;8.286;2023-02-03T04:20:26;100693.88;;;11.37;63.81
75026;BME280;63591;50.080;8.286;2023-02-03T04:22:51;100709.66;;;11.37;63.68
75026;BME280;63591;50.080;8.286;2023-02-03T04:25:16;100707.84;;;11.38;63.72
75026;BME280;63591;50.080;8.286;2023-02-03T04:27:42;100694.84;;;11.36;63.60
75026;BME280;63591;50.080;8.286;2023-02-03T04:30:09;100684.44;;;11.35;63.77
75026;BME280;63591;50.080;8.286;2023-02-03T04:32:34;100674.06;;;11.33;63.78
75026;BME280;63591;50.080;8.286;2023-02-03T04:35:01;100679.56;;;11.30;63.93
75026;BME280;63591;50.080;8.286;2023-02-03T04:37:26;100670.97;;;11.28;63.77
75026;BME280;63591;50.080;8.286;2023-02-03T04:39:55;100668.84;;;11.22;64.02
75026;BME280;63591;50.080;8.286;2023-02-03T04:42:21;100664.81;;;11.18;64.00
75026;BME280;63591;50.080;8.286;2023-02-03T04:44:46;100676.53;;;11.14;64.03
75026;BME280;63591;50.080;8.286;2023-02-03T04:47:12;100711.78;;;11.11;64.24
75026;BME280;63591;50.080;8.286;2023-02-03T04:49:37;100703.31;;;11.07;64.32
75026;BME280;63591;50.080;8.286;2023-02-03T04:52:03;100704.28;;;11.06;64.18
75026;BME280;63591;50.080;8.286;2023-02-03T04:54:28;100704.41;;;11.05;64.29
75026;BME280;63591;50.080;8.286;2023-02-03T04:56:53;100715.03;;;11.03;64.36
75026;BME280;63591;50.080;8.286;2023-02-03T04:59:19;100712.53;;;11.02;64.26
75026;BME280;63591;50.080;8.286;2023-02-03T05:01:44;100700.38;;;11.01;64.27
75026;BME280;63591;50.080;8.286;2023-02-03T05:04:09;100686.38;;;11.00;64.41
75026;BME280;63591;50.080;8.286;2023-02-03T05:06:34;100678.63;;;10.98;64.31
75026;BME280;63591;50.080;8.286;2023-02-03T05:09:00;100673.50;;;10.97;64.29
75026;BME280;63591;50.080;8.286;2023-02-03T05:11:25;100667.41;;;10.96;64.23
75026;BME280;63591;50.080;8.286;2023-02-03T05:13:51;100672.66;;;10.96;64.23
75026;BME280;63591;50.080;8.286;2023-02-03T05:16:17;100680.41;;;10.98;64.30
75026;BME280;63591;50.080;8.286;2023-02-03T05:18:42;100664.78;;;10.96;64.21
75026;BME280;63591;50.080;8.286;2023-02-03T05:21:07;100668.25;;;10.97;64.07
75026;BME280;63591;50.080;8.286;2023-02-03T05:23:33;100656.09;;;10.96;64.32
75026;BME280;63591;50.080;8.286;2023-02-03T05:25:58;100647.34;;;10.95;64.33
75026;BME280;63591;50.080;8.286;2023-02-03T05:28:23;100645.56;;;10.96;64.10
75026;BME280;63591;50.080;8.286;2023-02-03T05:30:49;100648.31;;;10.94;64.20
75026;BME280;63591;50.080;8.286;2023-02-03T05:33:14;100656.22;;;10.94;64.29
75026;BME280;63591;50.080;8.286;2023-02-03T05:35:40;100643.88;;;10.95;64.04
75026;BME280;63591;50.080;8.286;2023-02-03T05:38:05;100636.13;;;10.93;64.09
75026;BME280;63591;50.080;8.286;2023-02-03T05:40:31;100636.97;;;10.94;64.39
75026;BME280;63591;50.080;8.286;2023-02-03T05:43:15;100643.19;;;10.93;64.25
75026;BME280;63591;50.080;8.286;2023-02-03T05:45:40;100639.72;;;10.92;64.16
75026;BME280;63591;50.080;8.286;2023-02-03T05:48:05;100659.88;;;10.92;64.26
75026;BME280;63591;50.080;8.286;2023-02-03T05:50:34;100659.88;;;10.92;64.08
75026;BME280;63591;50.080;8.286;2023-02-03T05:53:01;100651.19;;;10.91;64.18
75026;BME280;63591;50.080;8.286;2023-02-03T05:55:28;100652.84;;;10.92;64.13
75026;BME280;63591;50.080;8.286;2023-02-03T05:57:53;100652.97;;;10.91;64.21
75026;BME280;63591;50.080;8.286;2023-02-03T06:00:19;100658.22;;;10.91;64.13
75026;BME280;63591;50.080;8.286;2023-02-03T06:02:56;100648.69;;;10.90;64.20
75026;BME280;63591;50.080;8.286;2023-02-03T06:05:23;100650.34;;;10.91;64.21
75026;BME280;63591;50.080;8.286;2023-02-03T06:07:49;100645.09;;;10.91;64.12
75026;BME280;63591;50.080;8.286;2023-02-03T06:10:14;100652.97;;;10.91;64.01
75026;BME280;63591;50.080;8.286;2023-02-03T06:12:40;100633.78;;;10.90;64.10
75026;BME280;63591;50.080;8.286;2023-02-03T06:15:07;100629.34;;;10.91;64.03
75026;BME280;63591;50.080;8.286;2023-02-03T06:17:32;100634.72;;;10.89;64.10
75026;BME280;63591;50.080;8.286;2023-02-03T06:19:58;100641.78;;;10.89;64.01
75026;BME280;63591;50.080;8.286;2023-02-03T06:22:23;100633.91;;;10.89;63.91
75026;BME280;63591;50.080;8.286;2023-02-03T06:24:48;100629.47;;;10.89;63.96
75026;BME280;63591;50.080;8.286;2023-02-03T06:27:14;100635.56;;;10.90;63.85
75026;BME280;63591;50.080;8.286;2023-02-03T06:29:41;100637.34;;;10.89;63.93
75026;BME280;63591;50.080;8.286;2023-02-03T06:32:06;100638.19;;;10.90;63.94
75026;BME280;63591;50.080;8.286;2023-02-03T06:34:32;100645.09;;;10.91;63.83
75026;BME280;63591;50.080;8.286;2023-02-03T06:36:58;100658.00;;;10.94;63.80
75026;BME280;63591;50.080;8.286;2023-02-03T06:39:23;100651.50;;;10.98;63.65
75026;BME280;63591;50.080;8.286;2023-02-03T06:41:48;100659.16;;;11.01;63.71
75026;BME280;63591;50.080;8.286;2023-02-03T06:44:16;100643.38;;;11.01;63.61
75026;BME280;63591;50.080;8.286;2023-02-03T06:46:41;100652.81;;;11.04;63.44
75026;BME280;63591;50.080;8.286;2023-02-03T06:49:06;100643.13;;;11.04;63.43
75026;BME280;63591;50.080;8.286;2023-02-03T06:51:31;100652.56;;;11.07;63.44
75026;BME280;63591;50.080;8.286;2023-02-03T06:53:57;100658.66;;;11.07;63.54
75026;BME280;63591;50.080;8.286;2023-02-03T06:56:23;100656.88;;;11.08;63.47
75026;BME280;63591;50.080;8.286;2023-02-03T06:58:48;100655.06;;;11.08;63.43
75026;BME280;63591;50.080;8.286;2023-02-03T07:01:13;100662.94;;;11.08;63.37
75026;BME280;63591;50.080;8.286;2023-02-03T07:03:39;100663.91;;;11.07;63.37
75026;BME280;63591;50.080;8.286;2023-02-03T07:06:04;100670.00;;;11.08;63.27
75026;BME280;63591;50.080;8.286;2023-02-03T07:08:30;100680.50;;;11.08;63.02
75026;BME280;63591;50.080;8.286;2023-02-03T07:10:55;100673.44;;;11.08;63.25
75026;BME280;63591;50.080;8.286;2023-02-03T07:13:20;100688.28;;;11.09;63.21
75026;BME280;63591;50.080;8.286;2023-02-03T07:15:46;100683.00;;;11.09;63.30
75026;BME280;63591;50.080;8.286;2023-02-03T07:18:11;100671.66;;;11.09;63.20
75026;BME280;63591;50.080;8.286;2023-02-03T07:20:36;100690.06;;;11.09;63.27
75026;BME280;63591;50.080;8.286;2023-02-03T07:23:02;100681.44;;;11.07;63.13
75026;BME280;63591;50.080;8.286;2023-02-03T07:25:27;100682.41;;;11.06;63.24
75026;BME280;63591;50.080;8.286;2023-02-03T07:27:53;100680.63;;;11.06;63.32
75026;BME280;63591;50.080;8.286;2023-02-03T07:30:18;100682.41;;;11.06;63.29
75026;BME280;63591;50.080;8.286;2023-02-03T07:32:48;100680.75;;;11.05;63.17
75026;BME280;63591;50.080;8.286;2023-02-03T07:35:14;100689.47;;;11.05;63.11
75026;BME280;63591;50.080;8.286;2023-02-03T07:37:40;100696.41;;;11.06;63.16
75026;BME280;63591;50.080;8.286;2023-02-03T07:40:06;100695.44;;;11.07;63.31
75026;BME280;63591;50.080;8.286;2023-02-03T07:42:32;100692.69;;;11.09;63.15
75026;BME280;63591;50.080;8.286;2023-02-03T07:44:57;100686.47;;;11.10;63.11
75026;BME280;63591;50.080;8.286;2023-02-03T07:47:22;100689.94;;;11.10;63.01
75026;BME280;63591;50.080;8.286;2023-02-03T07:49:47;100676.78;;;11.10;63.07
75026;BME280;63591;50.080;8.286;2023-02-03T07:52:13;100691.59;;;11.11;63.10
75026;BME280;63591;50.080;8.286;2023-02-03T07:54:38;100695.19;;;11.10;62.98
75026;BME280;63591;50.080;8.286;2023-02-03T07:57:04;100699.47;;;11.11;63.09
75026;BME280;63591;50.080;8.286;2023-02-03T07:59:29;100709.03;;;11.12;63.04
75026;BME280;63591;50.080;8.286;2023-02-03T08:01:54;100705.44;;;11.14;62.96
75026;BME280;63591;50.080;8.286;2023-02-03T08:04:21;100708.91;;;11.14;62.82
75026;BME280;63591;50.080;8.286;2023-02-03T08:06:46;100708.19;;;11.12;62.88
75026;BME280;63591;50.080;8.286;2023-02-03T08:09:11;100710.69;;;11.14;62.75
75026;BME280;63591;50.080;8.286;2023-02-03T08:11:37;100709.72;;;11.15;62.75
75026;BME280;63591;50.080;8.286;2023-02-03T08:14:02;100707.09;;;11.15;62.58
75026;BME280;63591;50.080;8.286;2023-02-03T08:16:27;100691.34;;;11.15;62.93
75026;BME280;63591;50.080;8.286;2023-02-03T08:18:53;100680.81;;;11.15;62.62
75026;BME280;63591;50.080;8.286;2023-02-03T08:21:18;100690.38;;;11.16;62.76
75026;BME280;63591;50.080;8.286;2023-02-03T08:23:43;100682.47;;;11.16;62.72
75026;BME280;63591;50.080;8.286;2023-02-03T08:26:08;100672.13;;;11.14;62.62
75026;BME280;63591;50.080;8.286;2023-02-03T08:28:34;100674.88;;;11.12;62.70
75026;BME280;63591;50.080;8.286;2023-02-03T08:30:59;100679.41;;;11.10;62.66
75026;BME280;63591;50.080;8.286;2023-02-03T08:33:24;100676.78;;;11.10;62.79
75026;BME280;63591;50.080;8.286;2023-02-03T08:35:50;100680.38;;;11.09;62.88
75026;BME280;63591;50.080;8.286;2023-02-03T08:38:16;100683.81;;;11.10;62.62
75026;BME280;63591;50.080;8.286;2023-02-03T08:40:41;100681.19;;;11.10;62.74
75026;BME280;63591;50.080;8.286;2023-02-03T08:43:07;100678.44;;;11.11;62.78
75026;BME280;63591;50.080;8.286;2023-02-03T08:45:32;100678.44;;;11.11;62.71
75026;BME280;63591;50.080;8.286;2023-02-03T08:47:57;100674.03;;;11.12;62.65
75026;BME280;63591;50.080;8.286;2023-02-03T08:50:23;100670.44;;;11.13;62.57
75026;BME280;63591;50.080;8.286;2023-02-03T08:52:48;100670.31;;;11.15;62.60
75026;BME280;63591;50.080;8.286;2023-02-03T08:55:13;100670.31;;;11.15;62.70
75026;BME280;63591;50.080;8.286;2023-02-03T08:57:39;100672.94;;;11.15;62.62
75026;BME280;63591;50.080;8.286;2023-02-03T09:00:07;100675.44;;;11.16;62.58
75026;BME280;63591;50.080;8.286;2023-02-03T09:02:33;100663.16;;;11.17;62.45
75026;BME280;63591;50.080;8.286;2023-02-03T09:04:58;100664.09;;;11.16;62.45
75026;BME280;63591;50.080;8.286;2023-02-03T09:07:24;100663.16;;;11.17;62.55
75026;BME280;63591;50.080;8.286;2023-02-03T09:09:49;100669.22;;;11.17;62.40
75026;BME280;63591;50.080;8.286;2023-02-03T09:12:14;100672.69;;;11.18;62.35
75026;BME280;63591;50.080;8.286;2023-02-03T09:14:40;100663.97;;;11.17;62.38
75026;BME280;63591;50.080;8.286;2023-02-03T09:17:05;100656.09;;;11.17;62.39
75026;BME280;63591;50.080;8.286;2023-02-03T09:19:32;100663.16;;;11.17;62.49
75026;BME280;63591;50.080;8.286;2023-02-03T09:21:57;100667.56;;;11.16;62.48
75026;BME280;63591;50.080;8.286;2023-02-03T09:24:23;100671.03;;;11.17;62.24
75026;BME280;63591;50.080;8.286;2023-02-03T09:26:49;100678.91;;;11.17;62.62
75026;BME280;63591;50.080;8.286;2023-02-03T09:29:15;100688.72;;;11.15;62.30
75026;BME280;63591;50.080;8.286;2023-02-03T09:31:40;100691.22;;;11.16;62.23
75026;BME280;63591;50.080;8.286;2023-02-03T09:34:06;100688.47;;;11.18;62.23
75026;BME280;63591;50.080;8.286;2023-02-03T09:36:31;100687.50;;;11.19;62.22
75026;BME280;63591;50.080;8.286;2023-02-03T09:38:57;100672.69;;;11.18;62.27
75026;BME280;63591;50.080;8.286;2023-02-03T09:41:58;100667.56;;;11.16;62.23
75026;BME280;63591;50.080;8.286;2023-02-03T09:44:54;100663.16;;;11.17;62.01
75026;BME280;63591;50.080;8.286;2023-02-03T09:47:27;100659.44;;;11.19;62.29
75026;BME280;63591;50.080;8.286;2023-02-03T09:49:59;100649.88;;;11.18;62.17
75026;BME280;63591;50.080;8.286;2023-02-03T09:52:28;100643.78;;;11.18;62.17
75026;BME280;63591;50.080;8.286;2023-02-03T09:55:05;100644.75;;;11.17;62.21
75026;BME280;63591;50.080;8.286;2023-02-03T09:57:43;100642.94;;;11.17;61.96
75026;BME280;63591;50.080;8.286;2023-02-03T10:00:26;100658.72;;;11.17;62.37
75026;BME280;63591;50.080;8.286;2023-02-03T10:06:20;100652.63;;;11.17;62.15
75026;BME280;63591;50.080;8.286;2023-02-03T10:14:20;100642.13;;;11.17;62.20
75026;BME280;63591;50.080;8.286;2023-02-03T10:20:14;100636.16;;;11.15;62.23
75026;BME280;63591;50.080;8.286;2023-02-03T10:22:48;100634.25;;;11.17;62.40
75026;BME280;63591;50.080;8.286;2023-02-03T10:28:00;100637.69;;;11.17;62.18
75026;BME280;63591;50.080;8.286;2023-02-03T10:30:30;100637.69;;;11.17;62.18
75026;BME280;63591;50.080;8.286;2023-02-03T10:33:09;100640.44;;;11.16;62.05
75026;BME280;63591;50.080;8.286;2023-02-03T10:35:52;100650.00;;;11.17;61.90
75026;BME280;63591;50.080;8.286;2023-02-03T10:38:26;100642.81;;;11.19;62.30
75026;BME280;63591;50.080;8.286;2023-02-03T10:40:54;100653.19;;;11.20;61.99
75026;BME280;63591;50.080;8.286;2023-02-03T10:43:20;100653.06;;;11.22;62.02
75026;BME280;63591;50.080;8.286;2023-02-03T10:46:04;100656.41;;;11.24;62.00
75026;BME280;63591;50.080;8.286;2023-02-03T10:48:29;100665.97;;;11.25;62.03
75026;BME280;63591;50.080;8.286;2023-02-03T10:50:56;100667.66;;;11.26;62.21
75026;BME280;63591;50.080;8.286;2023-02-03T10:53:25;100660.59;;;11.27;62.12
75026;BME280;63591;50.080;8.286;2023-02-03T10:56:13;100674.69;;;11.25;62.01
75026;BME280;63591;50.080;8.286;2023-02-03T10:58:47;100668.22;;;11.30;61.97
75026;BME280;63591;50.080;8.286;2023-02-03T11:01:16;100673.47;;;11.30;62.00
75026;BME280;63591;50.080;8.286;2023-02-03T11:04:02;100675.38;;;11.28;61.99
75026;BME280;63591;50.080;8.286;2023-02-03T11:06:29;100676.81;;;11.32;62.16
75026;BME280;63591;50.080;8.286;2023-02-03T11:08:55;100682.06;;;11.32;62.07
75026;BME280;63591;50.080;8.286;2023-02-03T11:11:26;100679.44;;;11.32;62.13
75026;BME280;63591;50.080;8.286;2023-02-03T11:14:15;100674.44;;;11.29;62.43
75026;BME280;63591;50.080;8.286;2023-02-03T11:16:41;100663.56;;;11.33;62.10
75026;BME280;63591;50.080;8.286;2023-02-03T11:19:19;100656.47;;;11.34;62.47
75026;BME280;63591;50.080;8.286;2023-02-03T11:21:48;100649.44;;;11.34;62.20
75026;BME280;63591;50.080;8.286;2023-02-03T11:24:29;100642.78;;;11.30;62.53
75026;BME280;63591;50.080;8.286;2023-02-03T11:26:56;100646.94;;;11.33;62.47
75026;BME280;63591;50.080;8.286;2023-02-03T11:29:26;100630.31;;;11.32;62.60
75026;BME280;63591;50.080;8.286;2023-02-03T11:31:54;100621.50;;;11.33;62.67
75026;BME280;63591;50.080;8.286;2023-02-03T11:34:29;100620.78;;;11.31;62.76
75026;BME280;63591;50.080;8.286;2023-02-03T11:36:55;100624.81;;;11.35;62.59
75026;BME280;63591;50.080;8.286;2023-02-03T11:39:29;100628.66;;;11.31;62.94
75026;BME280;63591;50.080;8.286;2023-02-03T11:41:59;100613.63;;;11.33;62.97
75026;BME280;63591;50.080;8.286;2023-02-03T11:44:29;100612.75;;;11.33;63.07
75026;BME280;63591;50.080;8.286;2023-02-03T11:47:00;100611.09;;;11.32;63.13
75026;BME280;63591;50.080;8.286;2023-02-03T11:58:04;100622.31;;;11.34;63.37
75026;BME280;63591;50.080;8.286;2023-02-03T12:09:07;100604.28;;;11.29;63.72
75026;BME280;63591;50.080;8.286;2023-02-03T12:14:51;100588.28;;;11.32;63.65
75026;BME280;63591;50.080;8.286;2023-02-03T12:17:22;100588.13;;;11.34;64.15
75026;BME280;63591;50.080;8.286;2023-02-03T12:25:34;100565.84;;;11.28;64.04
75026;BME280;63591;50.080;8.286;2023-02-03T12:28:11;100563.09;;;11.30;64.26
75026;BME280;63591;50.080;8.286;2023-02-03T12:30:42;100561.56;;;11.27;64.40
75026;BME280;63591;50.080;8.286;2023-02-03T12:33:26;100569.69;;;11.24;64.78
75026;BME280;63591;50.080;8.286;2023-02-03T12:36:04;100565.41;;;11.23;64.77
75026;BME280;63591;50.080;8.286;2023-02-03T12:38:46;100568.72;;;11.25;64.74
75026;BME280;63591;50.080;8.286;2023-02-03T12:41:27;100573.03;;;11.26;64.76
75026;BME280;63591;50.080;8.286;2023-02-03T12:43:58;100566.69;;;11.29;64.71
75026;BME280;63591;50.080;8.286;2023-02-03T12:46:41;100583.25;;;11.29;64.82
75026;BME280;63591;50.080;8.286;2023-02-03T12:49:14;100575.97;;;11.33;64.88
75026;BME280;63591;50.080;8.286;2023-02-03T12:51:49;100588.28;;;11.32;64.82
75026;BME280;63591;50.080;8.286;2023-02-03T12:57:27;100581.09;;;11.34;64.81
75026;BME280;63591;50.080;8.286;2023-02-03T13:02:26;100576.28;;;11.40;64.75
75026;BME280;63591;50.080;8.286;2023-02-03T13:04:59;100580.59;;;11.41;64.79
75026;BME280;63591;50.080;8.286;2023-02-03T13:07:35;100574.34;;;11.42;64.57
75026;BME280;63591;50.080;8.286;2023-02-03T13:10:20;100564.81;;;11.41;65.08
75026;BME280;63591;50.080;8.286;2023-02-03T13:12:53;100560.25;;;11.43;64.76
75026;BME280;63591;50.080;8.286;2023-02-03T13:15:24;100557.75;;;11.41;64.74
75026;BME280;63591;50.080;8.286;2023-02-03T13:18:01;100560.66;;;11.38;64.89
75026;BME280;63591;50.080;8.286;2023-02-03T13:20:31;100547.34;;;11.40;64.91
75026;BME280;63591;50.080;8.286;2023-02-03T13:23:02;100541.41;;;11.37;64.89
75026;BME280;63591;50.080;8.286;2023-02-03T13:28:30;100532.94;;;11.34;65.25
75026;BME280;63591;50.080;8.286;2023-02-03T13:31:09;100537.94;;;11.37;65.15
75026;BME280;63591;50.080;8.286;2023-02-03T13:42:27;100546.09;;;11.34;65.41
75026;BME280;63591;50.080;8.286;2023-02-03T13:45:28;100536.53;;;11.33;65.64
75026;BME280;63591;50.080;8.286;2023-02-03T13:48:05;100531.03;;;11.36;65.62
75026;BME280;63591;50.080;8.286;2023-02-03T13:50:32;100544.16;;;11.36;65.79
75026;BME280;63591;50.080;8.286;2023-02-03T13:53:01;100523.28;;;11.34;65.93
75026;BME280;63591;50.080;8.286;2023-02-03T13:55:33;100525.91;;;11.34;65.96
75026;BME280;63591;50.080;8.286;2023-02-03T13:58:00;100520.66;;;11.34;65.85
75026;BME280;63591;50.080;8.286;2023-02-03T14:05:54;100535.44;;;11.35;66.14
75026;BME280;63591;50.080;8.286;2023-02-03T14:16:46;100539.63;;;11.38;66.28
75026;BME280;63591;50.080;8.286;2023-02-03T14:21:49;100546.81;;;11.36;66.46
75026;BME280;63591;50.080;8.286;2023-02-03T14:24:16;100554.69;;;11.36;66.55
75026;BME280;63591;50.080;8.286;2023-02-03T14:26:51;100562.56;;;11.36;66.72
75026;BME280;63591;50.080;8.286;2023-02-03T14:29:30;100554.94;;;11.33;66.58
75026;BME280;63591;50.080;8.286;2023-02-03T14:31:58;100557.31;;;11.36;66.83
75026;BME280;63591;50.080;8.286;2023-02-03T14:34:35;100562.69;;;11.34;66.93
75026;BME280;63591;50.080;8.286;2023-02-03T14:40:11;100566.31;;;11.33;66.78